sensor_id;sensor_type;location;lat;lon;timestamp;pressure;altitude;pressure_sealevel;temperature;humidity
49585;BME280;35491;49.142;9.210;2023-03-04T00:00:34;100514.28;;;3.27;63.86
49585;BME280;35491;49.142;9.210;2023-03-04T00:01:35;100515.03;;;3.29;64.03
49585;BME280;35491;49.142;9.210;2023-03-04T00:02:39;100515.81;;;3.31;63.49
49585;BME280;35491;49.142;9.210;2023-03-04T00:03:40;100513.94;;;3.33;63.36
49585;BME280;35491;49.142;9.210;2023-03-04T00:04:44;100518.47;;;3.31;63.45
49585;BME280;35491;49.142;9.210;2023-03-04T00:05:45;100518.47;;;3.31;63.45
49585;BME280;35491;49.142;9.210;2023-03-04T00:06:49;100514.00;;;3.32;63.61
49585;BME280;35491;49.142;9.210;2023-03-04T00:07:53;100521.00;;;3.33;63.53
49585;BME280;35491;49.142;9.210;2023-03-04T00:08:57;100522.81;;;3.32;63.31
49585;BME280;35491;49.142;9.210;2023-03-04T00:09:58;100519.50;;;3.28;63.53
49585;BME280;35491;49.142;9.210;2023-03-04T00:11:02;100521.19;;;3.30;63.35
49585;BME280;35491;49.142;9.210;2023-03-04T00:12:03;100515.03;;;3.29;63.73
49585;BME280;35491;49.142;9.210;2023-03-04T00:13:08;100528.34;;;3.27;63.87
49585;BME280;35491;49.142;9.210;2023-03-04T00:14:09;100525.72;;;3.27;63.83
49585;BME280;35491;49.142;9.210;2023-03-04T00:15:13;100531.00;;;3.27;63.78
49585;BME280;35491;49.142;9.210;2023-03-04T00:16:15;100537.22;;;3.26;63.83
49585;BME280;35491;49.142;9.210;2023-03-04T00:17:19;100530.22;;;3.25;63.87
49585;BME280;35491;49.142;9.210;2023-03-04T00:18:20;100527.69;;;3.24;63.77
49585;BME280;35491;49.142;9.210;2023-03-04T00:19:24;100530.47;;;3.21;64.08
49585;BME280;35491;49.142;9.210;2023-03-04T00:20:26;100525.09;;;3.22;64.06
49585;BME280;35491;49.142;9.210;2023-03-04T00:21:30;100515.56;;;3.20;64.12
49585;BME280;35491;49.142;9.210;2023-03-04T00:22:31;100528.00;;;3.18;64.28
49585;BME280;35491;49.142;9.210;2023-03-04T00:23:38;100523.59;;;3.18;64.23
49585;BME280;35491;49.142;9.210;2023-03-04T00:24:40;100531.41;;;3.20;64.21
49585;BME280;35491;49.142;9.210;2023-03-04T00:25:52;100528.88;;;3.18;63.94
49585;BME280;35491;49.142;9.210;2023-03-04T00:26:53;100527.56;;;3.09;64.72
49585;BME280;35491;49.142;9.210;2023-03-04T00:27:57;100522.47;;;3.06;65.05
49585;BME280;35491;49.142;9.210;2023-03-04T00:28:58;100520.69;;;3.07;64.82
49585;BME280;35491;49.142;9.210;2023-03-04T00:30:05;100528.84;;;3.02;65.27
49585;BME280;35491;49.142;9.210;2023-03-04T00:31:06;100522.91;;;2.99;65.52
49585;BME280;35491;49.142;9.210;2023-03-04T00:32:10;100526.31;;;3.01;65.18
49585;BME280;35491;49.142;9.210;2023-03-04T00:33:12;100528.09;;;3.00;65.12
49585;BME280;35491;49.142;9.210;2023-03-04T00:34:16;100528.94;;;3.01;65.21
49585;BME280;35491;49.142;9.210;2023-03-04T00:35:17;100533.47;;;2.99;65.18
49585;BME280;35491;49.142;9.210;2023-03-04T00:36:20;100532.00;;;2.93;65.48
49585;BME280;35491;49.142;9.210;2023-03-04T00:37:22;100530.38;;;2.90;65.40
49585;BME280;35491;49.142;9.210;2023-03-04T00:38:25;100530.53;;;2.87;65.67
49585;BME280;35491;49.142;9.210;2023-03-04T00:39:31;100528.84;;;2.86;65.67
49585;BME280;35491;49.142;9.210;2023-03-04T00:40:35;100533.34;;;2.84;65.24
49585;BME280;35491;49.142;9.210;2023-03-04T00:41:36;100529.78;;;2.85;65.66
49585;BME280;35491;49.142;9.210;2023-03-04T00:42:40;100520.91;;;2.86;65.48
49585;BME280;35491;49.142;9.210;2023-03-04T00:43:42;100527.31;;;2.82;65.77
49585;BME280;35491;49.142;9.210;2023-03-04T00:44:46;100524.84;;;2.79;66.22
49585;BME280;35491;49.142;9.210;2023-03-04T00:45:49;100527.63;;;2.76;66.62
49585;BME280;35491;49.142;9.210;2023-03-04T00:46:53;100536.66;;;2.72;66.65
49585;BME280;35491;49.142;9.210;2023-03-04T00:47:54;100529.84;;;2.68;66.90
49585;BME280;35491;49.142;9.210;2023-03-04T00:48:57;100525.19;;;2.73;66.34
49585;BME280;35491;49.142;9.210;2023-03-04T00:49:59;100520.72;;;2.73;66.14
49585;BME280;35491;49.142;9.210;2023-03-04T00:51:02;100519.13;;;2.71;66.30
49585;BME280;35491;49.142;9.210;2023-03-04T00:52:04;100522.53;;;2.73;66.14
49585;BME280;35491;49.142;9.210;2023-03-04T00:53:08;100524.41;;;2.71;66.30
49585;BME280;35491;49.142;9.210;2023-03-04T00:54:10;100519.22;;;2.69;66.25
49585;BME280;35491;49.142;9.210;2023-03-04T00:55:17;100518.34;;;2.69;66.28
49585;BME280;35491;49.142;9.210;2023-03-04T00:56:18;100518.50;;;2.65;66.46
49585;BME280;35491;49.142;9.210;2023-03-04T00:57:22;100523.03;;;2.63;66.62
49585;BME280;35491;49.142;9.210;2023-03-04T00:58:25;100521.31;;;2.62;66.82
49585;BME280;35491;49.142;9.210;2023-03-04T00:59:29;100524.94;;;2.60;66.82
49585;BME280;35491;49.142;9.210;2023-03-04T01:00:30;100521.31;;;2.62;66.37
49585;BME280;35491;49.142;9.210;2023-03-04T01:01:34;100521.31;;;2.62;66.38
49585;BME280;35491;49.142;9.210;2023-03-04T01:02:35;100521.38;;;2.61;66.48
49585;BME280;35491;49.142;9.210;2023-03-04T01:03:39;100524.94;;;2.60;66.67
49585;BME280;35491;49.142;9.210;2023-03-04T01:04:43;100525.03;;;2.58;66.84
49585;BME280;35491;49.142;9.210;2023-03-04T01:05:46;100519.91;;;2.55;66.82
49585;BME280;35491;49.142;9.210;2023-03-04T01:06:49;100523.53;;;2.54;67.10
49585;BME280;35491;49.142;9.210;2023-03-04T01:07:52;100527.84;;;2.55;66.50
49585;BME280;35491;49.142;9.210;2023-03-04T01:08:54;100520.78;;;2.56;66.51
49585;BME280;35491;49.142;9.210;2023-03-04T01:09:57;100518.94;;;2.58;66.29
49585;BME280;35491;49.142;9.210;2023-03-04T01:11:01;100524.13;;;2.59;66.25
49585;BME280;35491;49.142;9.210;2023-03-04T01:12:05;100516.34;;;2.56;66.60
49585;BME280;35491;49.142;9.210;2023-03-04T01:13:07;100518.41;;;2.51;67.02
49585;BME280;35491;49.142;9.210;2023-03-04T01:14:11;100516.69;;;2.50;67.07
49585;BME280;35491;49.142;9.210;2023-03-04T01:15:13;100521.97;;;2.50;66.84
49585;BME280;35491;49.142;9.210;2023-03-04T01:16:16;100515.31;;;2.43;67.89
49585;BME280;35491;49.142;9.210;2023-03-04T01:17:19;100523.47;;;2.38;67.85
49585;BME280;35491;49.142;9.210;2023-03-04T01:18:22;100516.72;;;2.32;68.44
49585;BME280;35491;49.142;9.210;2023-03-04T01:19:24;100518.81;;;2.26;68.69
49585;BME280;35491;49.142;9.210;2023-03-04T01:20:27;100517.28;;;2.22;68.67
49585;BME280;35491;49.142;9.210;2023-03-04T01:21:29;100524.34;;;2.21;68.69
49585;BME280;35491;49.142;9.210;2023-03-04T01:22:32;100524.56;;;2.16;69.05
49585;BME280;35491;49.142;9.210;2023-03-04T01:23:35;100531.41;;;2.21;68.63
49585;BME280;35491;49.142;9.210;2023-03-04T01:24:38;100522.63;;;2.20;69.00
49585;BME280;35491;49.142;9.210;2023-03-04T01:25:39;100518.97;;;2.23;68.51
49585;BME280;35491;49.142;9.210;2023-03-04T01:26:46;100524.44;;;2.20;68.67
49585;BME280;35491;49.142;9.210;2023-03-04T01:27:48;100522.97;;;2.14;69.15
49585;BME280;35491;49.142;9.210;2023-03-04T01:28:52;100525.44;;;2.17;68.82
49585;BME280;35491;49.142;9.210;2023-03-04T01:29:53;100528.84;;;2.19;68.77
49585;BME280;35491;49.142;9.210;2023-03-04T01:30:57;100517.34;;;2.20;68.44
49585;BME280;35491;49.142;9.210;2023-03-04T01:31:58;100518.28;;;2.19;68.44
49585;BME280;35491;49.142;9.210;2023-03-04T01:33:01;100523.03;;;2.12;68.86
49585;BME280;35491;49.142;9.210;2023-03-04T01:34:03;100520.56;;;2.09;69.09
49585;BME280;35491;49.142;9.210;2023-03-04T01:35:09;100521.41;;;2.10;68.92
49585;BME280;35491;49.142;9.210;2023-03-04T01:36:10;100524.81;;;2.12;68.78
49585;BME280;35491;49.142;9.210;2023-03-04T01:37:14;100525.59;;;2.14;68.44
49585;BME280;35491;49.142;9.210;2023-03-04T01:38:16;100514.13;;;2.15;68.38
49585;BME280;35491;49.142;9.210;2023-03-04T01:39:19;100515.88;;;2.14;68.31
49585;BME280;35491;49.142;9.210;2023-03-04T01:40:20;100525.59;;;2.14;68.30
49585;BME280;35491;49.142;9.210;2023-03-04T01:41:25;100523.19;;;2.09;68.63
49585;BME280;35491;49.142;9.210;2023-03-04T01:42:29;100519.69;;;2.09;68.37
49585;BME280;35491;49.142;9.210;2023-03-04T01:43:34;100524.97;;;2.09;68.50
49585;BME280;35491;49.142;9.210;2023-03-04T01:44:36;100518.94;;;2.07;68.41
49585;BME280;35491;49.142;9.210;2023-03-04T01:45:40;100520.66;;;2.08;68.45
49585;BME280;35491;49.142;9.210;2023-03-04T01:46:41;100523.34;;;2.06;68.22
49585;BME280;35491;49.142;9.210;2023-03-04T01:47:47;100522.50;;;2.06;68.46
49585;BME280;35491;49.142;9.210;2023-03-04T01:48:49;100515.59;;;2.03;68.63
49585;BME280;35491;49.142;9.210;2023-03-04T01:49:53;100517.38;;;2.02;68.63
49585;BME280;35491;49.142;9.210;2023-03-04T01:50:54;100512.09;;;2.02;68.45
49585;BME280;35491;49.142;9.210;2023-03-04T01:51:58;100517.38;;;2.02;68.42
49585;BME280;35491;49.142;9.210;2023-03-04T01:53:01;100515.44;;;2.06;68.43
49585;BME280;35491;49.142;9.210;2023-03-04T01:54:05;100515.66;;;2.01;68.49
49585;BME280;35491;49.142;9.210;2023-03-04T01:55:09;100514.97;;;1.98;68.75
49585;BME280;35491;49.142;9.210;2023-03-04T01:56:18;100516.00;;;1.95;68.96
49585;BME280;35491;49.142;9.210;2023-03-04T01:57:21;100518.63;;;1.95;68.51
49585;BME280;35491;49.142;9.210;2023-03-04T01:58:29;100521.13;;;1.98;68.32
49585;BME280;35491;49.142;9.210;2023-03-04T01:59:30;100517.69;;;1.96;68.63
49585;BME280;35491;49.142;9.210;2023-03-04T02:00:34;100525.59;;;1.96;68.41
49585;BME280;35491;49.142;9.210;2023-03-04T02:01:37;100510.06;;;1.90;68.78
49585;BME280;35491;49.142;9.210;2023-03-04T02:02:41;100514.41;;;1.91;68.74
49585;BME280;35491;49.142;9.210;2023-03-04T02:03:42;100516.28;;;1.89;68.67
49585;BME280;35491;49.142;9.210;2023-03-04T02:04:45;100520.84;;;1.85;68.72
49585;BME280;35491;49.142;9.210;2023-03-04T02:05:47;100518.16;;;1.87;68.66
49585;BME280;35491;49.142;9.210;2023-03-04T02:06:52;100509.63;;;1.82;69.12
49585;BME280;35491;49.142;9.210;2023-03-04T02:07:53;100513.88;;;1.84;68.76
49585;BME280;35491;49.142;9.210;2023-03-04T02:08:58;100511.19;;;1.86;68.50
49585;BME280;35491;49.142;9.210;2023-03-04T02:09:59;100506.84;;;1.85;68.72
49585;BME280;35491;49.142;9.210;2023-03-04T02:11:03;100501.41;;;1.88;68.45
49585;BME280;35491;49.142;9.210;2023-03-04T02:12:04;100515.53;;;1.87;68.78
49585;BME280;35491;49.142;9.210;2023-03-04T02:13:08;100511.31;;;1.83;68.74
49585;BME280;35491;49.142;9.210;2023-03-04T02:14:12;100500.31;;;1.75;69.30
49585;BME280;35491;49.142;9.210;2023-03-04T02:15:16;100509.06;;;1.75;69.33
49585;BME280;35491;49.142;9.210;2023-03-04T02:16:17;100506.38;;;1.77;68.98
49585;BME280;35491;49.142;9.210;2023-03-04T02:17:23;100500.16;;;1.78;68.91
49585;BME280;35491;49.142;9.210;2023-03-04T02:18:24;100508.06;;;1.78;68.75
49585;BME280;35491;49.142;9.210;2023-03-04T02:19:31;100514.34;;;1.75;68.89
49585;BME280;35491;49.142;9.210;2023-03-04T02:20:38;100509.22;;;1.72;69.33
49585;BME280;35491;49.142;9.210;2023-03-04T02:21:45;100506.59;;;1.72;69.28
49585;BME280;35491;49.142;9.210;2023-03-04T02:22:46;100506.84;;;1.67;69.19
49585;BME280;35491;49.142;9.210;2023-03-04T02:23:54;100512.09;;;1.67;69.42
49585;BME280;35491;49.142;9.210;2023-03-04T02:24:58;100514.09;;;1.62;69.50
49585;BME280;35491;49.142;9.210;2023-03-04T02:26:10;100506.28;;;1.61;69.72
49585;BME280;35491;49.142;9.210;2023-03-04T02:27:12;100507.28;;;1.58;69.91
49585;BME280;35491;49.142;9.210;2023-03-04T02:28:15;100514.19;;;1.61;69.47
49585;BME280;35491;49.142;9.210;2023-03-04T02:29:17;100507.97;;;1.62;69.32
49585;BME280;35491;49.142;9.210;2023-03-04T02:30:22;100502.63;;;1.63;69.12
49585;BME280;35491;49.142;9.210;2023-03-04T02:31:25;100511.41;;;1.64;69.34
49585;BME280;35491;49.142;9.210;2023-03-04T02:32:30;100505.25;;;1.63;69.21
49585;BME280;35491;49.142;9.210;2023-03-04T02:33:31;100511.00;;;1.54;69.99
49585;BME280;35491;49.142;9.210;2023-03-04T02:34:35;100507.53;;;1.34;70.49
49585;BME280;35491;49.142;9.210;2023-03-04T02:35:37;100508.84;;;1.26;70.72
49585;BME280;35491;49.142;9.210;2023-03-04T02:36:40;100502.88;;;1.22;70.84
49585;BME280;35491;49.142;9.210;2023-03-04T02:37:42;100508.28;;;1.19;70.78
49585;BME280;35491;49.142;9.210;2023-03-04T02:38:47;100511.63;;;1.22;70.58
49585;BME280;35491;49.142;9.210;2023-03-04T02:39:48;100502.28;;;1.34;70.02
49585;BME280;35491;49.142;9.210;2023-03-04T02:40:52;100502.28;;;1.34;70.07
49585;BME280;35491;49.142;9.210;2023-03-04T02:41:57;100506.06;;;1.29;69.92
49585;BME280;35491;49.142;9.210;2023-03-04T02:43:01;100503.81;;;1.21;69.67
49585;BME280;35491;49.142;9.210;2023-03-04T02:44:02;100506.38;;;1.22;69.75
49585;BME280;35491;49.142;9.210;2023-03-04T02:46:22;100504.03;;;1.16;69.41
49585;BME280;35491;49.142;9.210;2023-03-04T02:47:26;100500.53;;;1.16;69.37
49585;BME280;35491;49.142;9.210;2023-03-04T02:48:27;100500.53;;;1.16;69.44
49585;BME280;35491;49.142;9.210;2023-03-04T02:49:31;100506.72;;;1.15;69.27
49585;BME280;35491;49.142;9.210;2023-03-04T02:50:33;100513.06;;;1.11;69.54
49585;BME280;35491;49.142;9.210;2023-03-04T02:51:38;100506.00;;;1.11;69.44
49585;BME280;35491;49.142;9.210;2023-03-04T02:52:42;100500.69;;;1.13;69.28
49585;BME280;35491;49.142;9.210;2023-03-04T02:53:43;100497.88;;;1.16;69.19
49585;BME280;35491;49.142;9.210;2023-03-04T02:54:46;100495.22;;;1.17;69.37
49585;BME280;35491;49.142;9.210;2023-03-04T02:55:48;100495.03;;;1.20;69.33
49585;BME280;35491;49.142;9.210;2023-03-04T02:56:53;100496.66;;;1.23;68.97
49585;BME280;35491;49.142;9.210;2023-03-04T02:57:57;100497.53;;;1.23;69.29
49585;BME280;35491;49.142;9.210;2023-03-04T02:59:01;100496.03;;;1.18;69.33
49585;BME280;35491;49.142;9.210;2023-03-04T03:00:02;100496.84;;;1.20;69.60
49585;BME280;35491;49.142;9.210;2023-03-04T03:01:07;100503.81;;;1.21;69.33
49585;BME280;35491;49.142;9.210;2023-03-04T03:02:09;100501.53;;;1.13;69.33
49585;BME280;35491;49.142;9.210;2023-03-04T03:03:13;100510.44;;;1.11;69.35
49585;BME280;35491;49.142;9.210;2023-03-04T03:04:14;100505.16;;;1.11;69.51
49585;BME280;35491;49.142;9.210;2023-03-04T03:05:18;100508.38;;;1.17;69.17
49585;BME280;35491;49.142;9.210;2023-03-04T03:06:20;100504.72;;;1.20;68.97
49585;BME280;35491;49.142;9.210;2023-03-04T03:07:24;100504.66;;;1.21;68.96
49585;BME280;35491;49.142;9.210;2023-03-04T03:08:25;100502.25;;;1.17;69.13
49585;BME280;35491;49.142;9.210;2023-03-04T03:09:29;100502.38;;;1.14;69.15
49585;BME280;35491;49.142;9.210;2023-03-04T03:10:30;100503.09;;;1.17;68.89
49585;BME280;35491;49.142;9.210;2023-03-04T03:11:34;100506.50;;;1.19;68.80
49585;BME280;35491;49.142;9.210;2023-03-04T03:12:36;100510.13;;;1.17;68.65
49585;BME280;35491;49.142;9.210;2023-03-04T03:13:42;100503.88;;;1.19;68.55
49585;BME280;35491;49.142;9.210;2023-03-04T03:14:43;100509.69;;;1.26;68.36
49585;BME280;35491;49.142;9.210;2023-03-04T03:15:47;100510.84;;;1.20;68.39
49585;BME280;35491;49.142;9.210;2023-03-04T03:16:48;100519.75;;;1.18;68.26
49585;BME280;35491;49.142;9.210;2023-03-04T03:17:52;100518.19;;;1.14;68.24
49585;BME280;35491;49.142;9.210;2023-03-04T03:18:53;100517.25;;;1.15;68.59
49585;BME280;35491;49.142;9.210;2023-03-04T03:19:57;100520.59;;;1.18;68.24
49585;BME280;35491;49.142;9.210;2023-03-04T03:20:58;100508.38;;;1.17;68.36
49585;BME280;35491;49.142;9.210;2023-03-04T03:22:02;100507.81;;;1.11;68.60
49585;BME280;35491;49.142;9.210;2023-03-04T03:23:03;100515.06;;;1.05;68.53
49585;BME280;35491;49.142;9.210;2023-03-04T03:24:07;100515.66;;;0.93;69.10
49585;BME280;35491;49.142;9.210;2023-03-04T03:25:09;100511.25;;;0.74;69.49
49585;BME280;35491;49.142;9.210;2023-03-04T03:26:13;100509.78;;;0.67;70.06
49585;BME280;35491;49.142;9.210;2023-03-04T03:27:14;100518.69;;;0.65;70.20
49585;BME280;35491;49.142;9.210;2023-03-04T03:28:18;100514.91;;;0.51;70.39
49585;BME280;35491;49.142;9.210;2023-03-04T03:29:21;100509.41;;;0.37;71.10
49585;BME280;35491;49.142;9.210;2023-03-04T03:30:25;100507.88;;;0.31;71.20
49585;BME280;35491;49.142;9.210;2023-03-04T03:31:26;100515.72;;;0.33;71.41
49585;BME280;35491;49.142;9.210;2023-03-04T03:32:30;100511.59;;;0.27;71.14
49585;BME280;35491;49.142;9.210;2023-03-04T03:33:31;100506.47;;;0.24;71.54
49585;BME280;35491;49.142;9.210;2023-03-04T03:34:35;100514.66;;;0.16;71.69
49585;BME280;35491;49.142;9.210;2023-03-04T03:35:36;100516.59;;;0.12;71.88
49585;BME280;35491;49.142;9.210;2023-03-04T03:36:39;100516.59;;;0.12;71.78
49585;BME280;35491;49.142;9.210;2023-03-04T03:37:41;100514.16;;;0.28;71.26
49585;BME280;35491;49.142;9.210;2023-03-04T03:38:44;100512.56;;;0.24;71.25
49585;BME280;35491;49.142;9.210;2023-03-04T03:39:45;100512.16;;;0.34;71.29
49585;BME280;35491;49.142;9.210;2023-03-04T03:40:49;100507.44;;;0.21;71.01
49585;BME280;35491;49.142;9.210;2023-03-04T03:41:53;100514.63;;;0.18;71.29
49585;BME280;35491;49.142;9.210;2023-03-04T03:42:54;100513.56;;;0.22;71.73
49585;BME280;35491;49.142;9.210;2023-03-04T03:43:59;100511.72;;;0.24;71.32
49585;BME280;35491;49.142;9.210;2023-03-04T03:45:04;100512.44;;;0.27;71.09
49585;BME280;35491;49.142;9.210;2023-03-04T03:46:08;100507.63;;;0.37;70.66
49585;BME280;35491;49.142;9.210;2023-03-04T03:47:09;100505.78;;;0.39;70.33
49585;BME280;35491;49.142;9.210;2023-03-04T03:48:13;100512.75;;;0.40;70.57
49585;BME280;35491;49.142;9.210;2023-03-04T03:49:14;100504.84;;;0.40;70.67
49585;BME280;35491;49.142;9.210;2023-03-04T03:50:18;100509.41;;;0.37;70.83
49585;BME280;35491;49.142;9.210;2023-03-04T03:51:19;100509.97;;;0.43;70.64
49585;BME280;35491;49.142;9.210;2023-03-04T03:52:23;100516.88;;;0.46;70.39
49585;BME280;35491;49.142;9.210;2023-03-04T03:53:25;100517.81;;;0.45;70.58
49585;BME280;35491;49.142;9.210;2023-03-04T03:54:29;100516.81;;;0.47;70.16
49585;BME280;35491;49.142;9.210;2023-03-04T03:55:30;100515.13;;;0.46;70.63
49585;BME280;35491;49.142;9.210;2023-03-04T03:56:34;100510.63;;;0.49;70.48
49585;BME280;35491;49.142;9.210;2023-03-04T03:57:35;100516.03;;;0.45;70.66
49585;BME280;35491;49.142;9.210;2023-03-04T03:58:39;100514.25;;;0.46;70.61
49585;BME280;35491;49.142;9.210;2023-03-04T03:59:40;100514.38;;;0.43;70.77
49585;BME280;35491;49.142;9.210;2023-03-04T04:00:47;100522.84;;;0.30;71.02
49585;BME280;35491;49.142;9.210;2023-03-04T04:01:48;100517.19;;;0.19;71.64
49585;BME280;35491;49.142;9.210;2023-03-04T04:02:52;100519.38;;;0.09;71.86
49585;BME280;35491;49.142;9.210;2023-03-04T04:03:54;100521.13;;;0.09;72.02
49585;BME280;35491;49.142;9.210;2023-03-04T04:04:59;100518.63;;;0.06;72.13
49585;BME280;35491;49.142;9.210;2023-03-04T04:06:00;100525.84;;;0.01;72.07
49585;BME280;35491;49.142;9.210;2023-03-04T04:07:04;100519.69;;;0.02;72.16
49585;BME280;35491;49.142;9.210;2023-03-04T04:08:05;100523.31;;;-0.01;72.33
49585;BME280;35491;49.142;9.210;2023-03-04T04:09:09;100522.44;;;-0.02;72.27
49585;BME280;35491;49.142;9.210;2023-03-04T04:10:10;100516.06;;;0.04;72.36
49585;BME280;35491;49.142;9.210;2023-03-04T04:11:15;100531.72;;;0.07;71.98
49585;BME280;35491;49.142;9.210;2023-03-04T04:12:17;100526.38;;;0.09;71.74
49585;BME280;35491;49.142;9.210;2023-03-04T04:13:21;100522.84;;;0.10;71.61
49585;BME280;35491;49.142;9.210;2023-03-04T04:14:22;100525.38;;;0.11;71.80
49585;BME280;35491;49.142;9.210;2023-03-04T04:15:26;100526.97;;;0.15;71.61
49585;BME280;35491;49.142;9.210;2023-03-04T04:16:30;100530.19;;;0.22;71.28
49585;BME280;35491;49.142;9.210;2023-03-04T04:17:34;100530.91;;;0.26;71.14
49585;BME280;35491;49.142;9.210;2023-03-04T04:18:35;100534.47;;;0.25;70.68
49585;BME280;35491;49.142;9.210;2023-03-04T04:19:39;100527.38;;;0.27;70.89
49585;BME280;35491;49.142;9.210;2023-03-04T04:20:43;100530.91;;;0.26;70.86
49585;BME280;35491;49.142;9.210;2023-03-04T04:21:44;100531.50;;;0.33;70.53
49585;BME280;35491;49.142;9.210;2023-03-04T04:22:47;100526.97;;;0.36;70.47
49585;BME280;35491;49.142;9.210;2023-03-04T04:23:49;100532.22;;;0.36;70.48
49585;BME280;35491;49.142;9.210;2023-03-04T04:24:52;100531.44;;;0.34;70.31
49585;BME280;35491;49.142;9.210;2023-03-04T04:25:53;100535.63;;;0.38;70.29
49585;BME280;35491;49.142;9.210;2023-03-04T04:28:02;100537.50;;;0.36;70.47
49585;BME280;35491;49.142;9.210;2023-03-04T04:29:06;100541.03;;;0.35;70.33
49585;BME280;35491;49.142;9.210;2023-03-04T04:30:09;100537.63;;;0.33;70.34
49585;BME280;35491;49.142;9.210;2023-03-04T04:33:22;100535.25;;;0.27;70.58
49585;BME280;35491;49.142;9.210;2023-03-04T04:34:26;100542.56;;;0.20;70.99
49585;BME280;35491;49.142;9.210;2023-03-04T04:37:35;100537.63;;;0.12;71.39
49585;BME280;35491;49.142;9.210;2023-03-04T04:40:43;100542.09;;;0.10;71.42
49585;BME280;35491;49.142;9.210;2023-03-04T04:44:56;100541.84;;;0.17;70.77
49585;BME280;35491;49.142;9.210;2023-03-04T04:47:03;100541.97;;;0.13;70.98
49585;BME280;35491;49.142;9.210;2023-03-04T04:50:15;100541.31;;;0.08;71.35
49585;BME280;35491;49.142;9.210;2023-03-04T04:52:22;100545.66;;;0.09;70.86
49585;BME280;35491;49.142;9.210;2023-03-04T04:54:33;100538.53;;;0.11;71.04
49585;BME280;35491;49.142;9.210;2023-03-04T04:55:37;100531.56;;;0.10;71.26
49585;BME280;35491;49.142;9.210;2023-03-04T04:57:41;100541.13;;;0.13;71.01
49585;BME280;35491;49.142;9.210;2023-03-04T04:58:45;100543.78;;;0.11;71.17
49585;BME280;35491;49.142;9.210;2023-03-04T04:59:46;100542.84;;;0.14;71.18
49585;BME280;35491;49.142;9.210;2023-03-04T05:00:50;100540.13;;;0.15;70.97
49585;BME280;35491;49.142;9.210;2023-03-04T05:01:51;100550.72;;;0.14;71.03
49585;BME280;35491;49.142;9.210;2023-03-04T05:02:54;100554.19;;;0.14;71.07
49585;BME280;35491;49.142;9.210;2023-03-04T05:03:56;100552.47;;;0.13;71.31
49585;BME280;35491;49.142;9.210;2023-03-04T05:04:59;100550.66;;;0.15;70.84
49585;BME280;35491;49.142;9.210;2023-03-04T05:06:04;100557.75;;;0.13;71.03
49585;BME280;35491;49.142;9.210;2023-03-04T05:07:08;100554.28;;;0.13;71.34
49585;BME280;35491;49.142;9.210;2023-03-04T05:08:09;100552.47;;;0.13;71.14
49585;BME280;35491;49.142;9.210;2023-03-04T05:09:13;100555.09;;;0.13;71.00
49585;BME280;35491;49.142;9.210;2023-03-04T05:10:14;100555.09;;;0.13;71.16
49585;BME280;35491;49.142;9.210;2023-03-04T05:11:19;100564.78;;;0.13;71.35
49585;BME280;35491;49.142;9.210;2023-03-04T05:12:21;100555.44;;;0.06;71.89
49585;BME280;35491;49.142;9.210;2023-03-04T05:13:25;100557.13;;;0.07;71.64
49585;BME280;35491;49.142;9.210;2023-03-04T05:14:26;100564.19;;;0.06;71.52
49585;BME280;35491;49.142;9.210;2023-03-04T05:15:29;100559.66;;;0.10;71.47
49585;BME280;35491;49.142;9.210;2023-03-04T05:16:31;100558.94;;;0.06;71.61
49585;BME280;35491;49.142;9.210;2023-03-04T05:17:34;100556.19;;;0.09;71.47
49585;BME280;35491;49.142;9.210;2023-03-04T05:18:36;100565.09;;;0.05;71.69
49585;BME280;35491;49.142;9.210;2023-03-04T05:19:40;100561.56;;;0.06;71.31
49585;BME280;35491;49.142;9.210;2023-03-04T05:20:41;100558.94;;;0.06;71.46
49585;BME280;35491;49.142;9.210;2023-03-04T05:21:47;100554.47;;;0.08;71.17
49585;BME280;35491;49.142;9.210;2023-03-04T05:22:48;100560.50;;;0.10;71.26
49585;BME280;35491;49.142;9.210;2023-03-04T05:23:53;100550.25;;;0.04;71.69
49585;BME280;35491;49.142;9.210;2023-03-04T05:24:54;100559.00;;;0.05;71.38
49585;BME280;35491;49.142;9.210;2023-03-04T05:25:57;100552.88;;;0.04;71.26
49585;BME280;35491;49.142;9.210;2023-03-04T05:26:59;100555.56;;;0.03;71.44
49585;BME280;35491;49.142;9.210;2023-03-04T05:28:02;100551.53;;;-0.06;71.58
49585;BME280;35491;49.142;9.210;2023-03-04T05:30:09;100560.69;;;-0.15;72.18
49585;BME280;35491;49.142;9.210;2023-03-04T05:31:13;100549.38;;;-0.17;72.28
49585;BME280;35491;49.142;9.210;2023-03-04T05:32:14;100555.63;;;-0.20;72.31
49585;BME280;35491;49.142;9.210;2023-03-04T05:33:18;100555.75;;;-0.23;72.40
49585;BME280;35491;49.142;9.210;2023-03-04T05:34:19;100560.81;;;-0.18;72.57
49585;BME280;35491;49.142;9.210;2023-03-04T05:35:23;100564.16;;;-0.14;72.29
49585;BME280;35491;49.142;9.210;2023-03-04T05:36:24;100564.97;;;-0.12;72.02
49585;BME280;35491;49.142;9.210;2023-03-04T05:37:30;100555.44;;;-0.15;72.21
49585;BME280;35491;49.142;9.210;2023-03-04T05:38:31;100556.09;;;-0.10;71.87
49585;BME280;35491;49.142;9.210;2023-03-04T05:39:35;100555.34;;;-0.13;71.87
49585;BME280;35491;49.142;9.210;2023-03-04T05:40:37;100560.50;;;-0.10;71.80
49585;BME280;35491;49.142;9.210;2023-03-04T05:41:41;100558.78;;;-0.11;71.90
49585;BME280;35491;49.142;9.210;2023-03-04T05:42:42;100551.84;;;-0.14;71.93
49585;BME280;35491;49.142;9.210;2023-03-04T05:43:46;100556.19;;;-0.13;71.86
49585;BME280;35491;49.142;9.210;2023-03-04T05:44:47;100563.88;;;-0.08;71.92
49585;BME280;35491;49.142;9.210;2023-03-04T05:45:50;100564.22;;;-0.16;72.17
49585;BME280;35491;49.142;9.210;2023-03-04T05:46:51;100560.69;;;-0.15;72.51
49585;BME280;35491;49.142;9.210;2023-03-04T05:47:55;100560.72;;;-0.17;72.52
49585;BME280;35491;49.142;9.210;2023-03-04T05:48:57;100567.81;;;-0.19;72.76
49585;BME280;35491;49.142;9.210;2023-03-04T05:50:01;100566.91;;;-0.18;72.60
49585;BME280;35491;49.142;9.210;2023-03-04T05:51:03;100565.88;;;-0.13;72.71
49585;BME280;35491;49.142;9.210;2023-03-04T05:52:06;100565.06;;;-0.16;72.71
49585;BME280;35491;49.142;9.210;2023-03-04T05:53:10;100566.06;;;-0.18;73.00